This is the latest recevied weather packets stored in our database for station/object KI7JYE. If no packets are shown the sender has not sent any weather packets the latest 10 day(s).
| Time | Temp. | Humidity | Pressure | Rain* | Wind** | Luminosity | Snow |
|---|---|---|---|---|---|---|---|
| 1777439797 | 10° C | 73% | 1022.5 hPa | 0 mm | - | 0 W/m² | - |
| 1777439494 | 10.56° C | 73% | 1022.5 hPa | 0 mm | - | 0 W/m² | - |
| 1777439189 | 10.56° C | 73% | 1022.5 hPa | 0 mm | - | 0 W/m² | - |
| 1777438886 | 10.56° C | 73% | 1022.8 hPa | 0 mm | - | 0 W/m² | - |
| 1777438583 | 10.56° C | 72% | 1022.3 hPa | 0 mm | - | 0 W/m² | - |
| 1777437064 | 10.56° C | 72% | 1022.1 hPa | 0 mm | - | 0 W/m² | - |
| 1777436761 | 10.56° C | 72% | 1022.1 hPa | 0 mm | - | 0 W/m² | - |
| 1777436154 | 10.56° C | 72% | 1022.2 hPa | 0 mm | - | 0 W/m² | - |
| 1777426438 | 15° C | 58% | 1021.7 hPa | 0 mm | - | 110 W/m² | - |
| 1777425834 | 14.44° C | 56% | 1021.7 hPa | 0 mm | - | 81 W/m² | - |
| 1777425529 | 15° C | 55% | 1021.4 hPa | 0 mm | - | 78 W/m² | - |
| 1777424313 | 15.56° C | 53% | 1021.4 hPa | 0 mm | - | 120 W/m² | - |
| 1777423706 | 16.11° C | 53% | 1021.3 hPa | 0 mm | - | 154 W/m² | - |
| 1777423402 | 15.56° C | 52% | 1021.6 hPa | 0 mm | - | 166 W/m² | - |
| 1777423096 | 15.56° C | 51% | 1021.4 hPa | 0 mm | - | 169 W/m² | - |
| 1777422487 | 15.56° C | 51% | 1021.6 hPa | 0 mm | - | 202 W/m² | - |
| 1777422182 | 15.56° C | 52% | 1021.4 hPa | 0 mm | - | 157 W/m² | - |
| 1777421882 | 15.56° C | 53% | 1021.5 hPa | 0 mm | - | 144 W/m² | - |
| 1777421581 | 15.56° C | 52% | 1021.3 hPa | 0 mm | - | 160 W/m² | - |
| 1777419152 | 15.56° C | 49% | 1021.6 hPa | 0 mm | - | 170 W/m² | - |
| 1777414591 | 16.11° C | 50% | 1021.8 hPa | 0 mm | - | 213 W/m² | - |
| 1777413677 | 15.56° C | 49% | 1022.2 hPa | 0 mm | - | 196 W/m² | - |
| 1777413373 | 16.67° C | 47% | 1022.4 hPa | 0 mm | - | 223 W/m² | - |
| 1777411250 | 15° C | 53% | 1022.7 hPa | 0 mm | - | 205 W/m² | - |
| 1777410945 | 15° C | 52% | 1022.3 hPa | 0 mm | - | 199 W/m² | - |
* Rain latest hour (hover to see other rain measurements)
** Current wind speed in m/s (hover to see current wind gust speed)